sensor_id;sensor_type;location;lat;lon;timestamp;P1;durP1;ratioP1;P2;durP2;ratioP2
55800;SDS011;41730;51.960;20.158;2022-10-18T00:00:07;12.10;;;8.10;;
55800;SDS011;41730;51.960;20.158;2022-10-18T00:02:38;11.30;;;6.90;;
55800;SDS011;41730;51.960;20.158;2022-10-18T00:05:07;10.30;;;6.70;;
55800;SDS011;41730;51.960;20.158;2022-10-18T00:07:37;11.30;;;7.00;;
55800;SDS011;41730;51.960;20.158;2022-10-18T00:10:07;11.40;;;7.40;;
55800;SDS011;41730;51.960;20.158;2022-10-18T00:12:36;11.10;;;7.10;;
55800;SDS011;41730;51.960;20.158;2022-10-18T00:15:08;11.20;;;7.30;;
55800;SDS011;41730;51.960;20.158;2022-10-18T00:17:38;10.40;;;7.20;;
55800;SDS011;41730;51.960;20.158;2022-10-18T00:20:07;11.10;;;7.10;;
55800;SDS011;41730;51.960;20.158;2022-10-18T00:22:38;10.30;;;7.00;;
55800;SDS011;41730;51.960;20.158;2022-10-18T00:25:08;10.10;;;6.60;;
55800;SDS011;41730;51.960;20.158;2022-10-18T00:27:39;11.50;;;7.00;;
55800;SDS011;41730;51.960;20.158;2022-10-18T00:30:08;11.30;;;6.10;;
55800;SDS011;41730;51.960;20.158;2022-10-18T00:32:37;13.70;;;7.10;;
55800;SDS011;41730;51.960;20.158;2022-10-18T00:35:08;10.70;;;6.70;;
55800;SDS011;41730;51.960;20.158;2022-10-18T00:37:37;10.10;;;6.70;;
55800;SDS011;41730;51.960;20.158;2022-10-18T00:40:06;10.20;;;7.10;;
55800;SDS011;41730;51.960;20.158;2022-10-18T00:42:37;10.10;;;6.10;;
55800;SDS011;41730;51.960;20.158;2022-10-18T00:45:16;11.40;;;6.30;;
55800;SDS011;41730;51.960;20.158;2022-10-18T00:47:49;9.30;;;5.70;;
55800;SDS011;41730;51.960;20.158;2022-10-18T00:50:21;8.20;;;5.20;;
55800;SDS011;41730;51.960;20.158;2022-10-18T00:52:53;9.10;;;6.00;;
55800;SDS011;41730;51.960;20.158;2022-10-18T00:55:24;8.40;;;6.20;;
55800;SDS011;41730;51.960;20.158;2022-10-18T00:57:54;8.30;;;6.10;;
55800;SDS011;41730;51.960;20.158;2022-10-18T01:00:23;8.60;;;5.90;;
55800;SDS011;41730;51.960;20.158;2022-10-18T01:02:52;9.40;;;6.00;;
55800;SDS011;41730;51.960;20.158;2022-10-18T01:05:21;9.60;;;5.90;;
55800;SDS011;41730;51.960;20.158;2022-10-18T01:07:55;8.10;;;5.50;;
55800;SDS011;41730;51.960;20.158;2022-10-18T01:10:35;7.10;;;4.90;;
55800;SDS011;41730;51.960;20.158;2022-10-18T01:13:12;7.50;;;5.40;;
55800;SDS011;41730;51.960;20.158;2022-10-18T01:15:54;7.50;;;5.60;;
55800;SDS011;41730;51.960;20.158;2022-10-18T01:18:28;8.40;;;5.40;;
55800;SDS011;41730;51.960;20.158;2022-10-18T01:26:53;8.90;;;5.90;;
55800;SDS011;41730;51.960;20.158;2022-10-18T01:29:36;7.80;;;5.00;;
55800;SDS011;41730;51.960;20.158;2022-10-18T01:32:14;6.90;;;4.60;;
55800;SDS011;41730;51.960;20.158;2022-10-18T01:34:46;8.70;;;4.80;;
55800;SDS011;41730;51.960;20.158;2022-10-18T01:37:18;7.60;;;5.30;;
55800;SDS011;41730;51.960;20.158;2022-10-18T01:39:49;7.70;;;5.30;;
55800;SDS011;41730;51.960;20.158;2022-10-18T01:42:21;8.00;;;5.40;;
55800;SDS011;41730;51.960;20.158;2022-10-18T01:44:51;8.90;;;5.90;;
55800;SDS011;41730;51.960;20.158;2022-10-18T01:47:20;7.60;;;5.20;;
55800;SDS011;41730;51.960;20.158;2022-10-18T01:49:54;9.30;;;5.10;;
55800;SDS011;41730;51.960;20.158;2022-10-18T01:54:52;7.80;;;4.50;;
55800;SDS011;41730;51.960;20.158;2022-10-18T01:57:25;7.60;;;5.00;;
55800;SDS011;41730;51.960;20.158;2022-10-18T02:00:03;8.80;;;5.20;;
55800;SDS011;41730;51.960;20.158;2022-10-18T02:02:41;9.00;;;5.30;;
55800;SDS011;41730;51.960;20.158;2022-10-18T02:05:23;7.40;;;5.30;;
55800;SDS011;41730;51.960;20.158;2022-10-18T02:07:58;9.40;;;5.00;;
55800;SDS011;41730;51.960;20.158;2022-10-18T02:10:49;7.40;;;5.00;;
55800;SDS011;41730;51.960;20.158;2022-10-18T02:13:21;7.00;;;5.20;;
55800;SDS011;41730;51.960;20.158;2022-10-18T02:15:53;8.00;;;4.80;;
55800;SDS011;41730;51.960;20.158;2022-10-18T02:18:27;7.90;;;4.10;;
55800;SDS011;41730;51.960;20.158;2022-10-18T02:21:00;7.10;;;5.20;;
55800;SDS011;41730;51.960;20.158;2022-10-18T02:23:30;7.90;;;5.10;;
55800;SDS011;41730;51.960;20.158;2022-10-18T02:26:00;9.60;;;5.00;;
55800;SDS011;41730;51.960;20.158;2022-10-18T02:28:29;9.20;;;5.80;;
55800;SDS011;41730;51.960;20.158;2022-10-18T02:30:59;7.90;;;5.30;;
55800;SDS011;41730;51.960;20.158;2022-10-18T02:33:34;8.40;;;5.30;;
55800;SDS011;41730;51.960;20.158;2022-10-18T02:36:14;8.00;;;5.00;;
55800;SDS011;41730;51.960;20.158;2022-10-18T02:38:48;7.30;;;5.20;;
55800;SDS011;41730;51.960;20.158;2022-10-18T02:41:24;8.20;;;5.30;;
55800;SDS011;41730;51.960;20.158;2022-10-18T02:43:54;6.40;;;4.90;;
55800;SDS011;41730;51.960;20.158;2022-10-18T02:46:22;8.90;;;5.60;;
55800;SDS011;41730;51.960;20.158;2022-10-18T02:48:56;7.90;;;5.10;;
55800;SDS011;41730;51.960;20.158;2022-10-18T02:51:25;7.50;;;4.90;;
55800;SDS011;41730;51.960;20.158;2022-10-18T02:53:54;6.60;;;4.70;;
55800;SDS011;41730;51.960;20.158;2022-10-18T02:56:22;7.70;;;5.10;;
55800;SDS011;41730;51.960;20.158;2022-10-18T02:58:51;9.50;;;5.10;;
55800;SDS011;41730;51.960;20.158;2022-10-18T03:01:19;7.80;;;5.30;;
55800;SDS011;41730;51.960;20.158;2022-10-18T03:03:48;7.10;;;5.10;;
55800;SDS011;41730;51.960;20.158;2022-10-18T03:06:17;6.90;;;5.10;;
55800;SDS011;41730;51.960;20.158;2022-10-18T03:08:46;8.00;;;5.50;;
55800;SDS011;41730;51.960;20.158;2022-10-18T03:11:15;9.80;;;5.50;;
55800;SDS011;41730;51.960;20.158;2022-10-18T03:13:44;6.50;;;4.70;;
55800;SDS011;41730;51.960;20.158;2022-10-18T03:16:13;8.20;;;5.40;;
55800;SDS011;41730;51.960;20.158;2022-10-18T03:18:42;7.90;;;5.00;;
55800;SDS011;41730;51.960;20.158;2022-10-18T03:21:10;6.60;;;4.80;;
55800;SDS011;41730;51.960;20.158;2022-10-18T03:23:40;8.10;;;4.80;;
55800;SDS011;41730;51.960;20.158;2022-10-18T03:26:10;7.30;;;5.10;;
55800;SDS011;41730;51.960;20.158;2022-10-18T03:28:43;8.10;;;5.20;;
55800;SDS011;41730;51.960;20.158;2022-10-18T03:31:14;8.60;;;4.90;;
55800;SDS011;41730;51.960;20.158;2022-10-18T03:33:43;5.90;;;4.40;;
55800;SDS011;41730;51.960;20.158;2022-10-18T03:36:12;6.70;;;5.00;;
55800;SDS011;41730;51.960;20.158;2022-10-18T03:38:41;8.80;;;5.60;;
55800;SDS011;41730;51.960;20.158;2022-10-18T03:41:10;9.00;;;5.00;;
55800;SDS011;41730;51.960;20.158;2022-10-18T03:43:39;8.70;;;5.90;;
55800;SDS011;41730;51.960;20.158;2022-10-18T03:46:08;9.10;;;5.50;;
55800;SDS011;41730;51.960;20.158;2022-10-18T03:48:37;11.80;;;6.40;;
55800;SDS011;41730;51.960;20.158;2022-10-18T03:51:05;8.10;;;5.50;;
55800;SDS011;41730;51.960;20.158;2022-10-18T03:53:34;10.00;;;5.60;;
55800;SDS011;41730;51.960;20.158;2022-10-18T03:56:03;8.90;;;5.40;;
55800;SDS011;41730;51.960;20.158;2022-10-18T03:58:32;8.40;;;5.30;;
55800;SDS011;41730;51.960;20.158;2022-10-18T04:01:01;10.40;;;5.90;;
55800;SDS011;41730;51.960;20.158;2022-10-18T04:03:30;13.10;;;5.90;;
55800;SDS011;41730;51.960;20.158;2022-10-18T04:05:59;9.60;;;5.50;;
55800;SDS011;41730;51.960;20.158;2022-10-18T04:08:29;7.00;;;5.20;;
55800;SDS011;41730;51.960;20.158;2022-10-18T04:10:58;9.40;;;5.50;;
55800;SDS011;41730;51.960;20.158;2022-10-18T04:13:30;7.50;;;4.80;;
55800;SDS011;41730;51.960;20.158;2022-10-18T04:16:00;8.60;;;5.40;;
55800;SDS011;41730;51.960;20.158;2022-10-18T04:18:28;7.40;;;5.60;;
55800;SDS011;41730;51.960;20.158;2022-10-18T04:20:57;7.70;;;5.50;;
55800;SDS011;41730;51.960;20.158;2022-10-18T04:23:26;8.70;;;5.90;;
55800;SDS011;41730;51.960;20.158;2022-10-18T04:25:55;8.50;;;5.60;;
55800;SDS011;41730;51.960;20.158;2022-10-18T04:28:24;10.30;;;5.90;;
55800;SDS011;41730;51.960;20.158;2022-10-18T04:30:52;8.60;;;4.70;;
55800;SDS011;41730;51.960;20.158;2022-10-18T04:33:21;7.80;;;5.10;;
55800;SDS011;41730;51.960;20.158;2022-10-18T04:35:51;10.10;;;5.30;;
55800;SDS011;41730;51.960;20.158;2022-10-18T04:38:20;11.40;;;5.60;;
55800;SDS011;41730;51.960;20.158;2022-10-18T04:40:49;10.00;;;6.10;;
55800;SDS011;41730;51.960;20.158;2022-10-18T04:43:18;7.50;;;5.70;;
55800;SDS011;41730;51.960;20.158;2022-10-18T04:45:47;9.30;;;6.00;;
55800;SDS011;41730;51.960;20.158;2022-10-18T04:48:17;8.30;;;5.30;;
55800;SDS011;41730;51.960;20.158;2022-10-18T04:50:47;7.20;;;4.40;;
55800;SDS011;41730;51.960;20.158;2022-10-18T04:53:16;6.80;;;5.00;;
55800;SDS011;41730;51.960;20.158;2022-10-18T04:55:46;9.10;;;6.00;;
55800;SDS011;41730;51.960;20.158;2022-10-18T04:58:15;9.10;;;5.90;;
55800;SDS011;41730;51.960;20.158;2022-10-18T05:00:44;9.50;;;5.30;;
55800;SDS011;41730;51.960;20.158;2022-10-18T05:03:14;8.10;;;5.90;;
55800;SDS011;41730;51.960;20.158;2022-10-18T05:05:43;9.70;;;5.60;;
55800;SDS011;41730;51.960;20.158;2022-10-18T05:08:30;8.00;;;5.50;;
55800;SDS011;41730;51.960;20.158;2022-10-18T05:11:00;8.50;;;5.00;;
55800;SDS011;41730;51.960;20.158;2022-10-18T05:13:29;7.80;;;5.20;;
55800;SDS011;41730;51.960;20.158;2022-10-18T05:15:59;6.70;;;4.90;;
55800;SDS011;41730;51.960;20.158;2022-10-18T05:18:28;7.40;;;5.50;;
55800;SDS011;41730;51.960;20.158;2022-10-18T05:20:57;8.70;;;5.20;;
55800;SDS011;41730;51.960;20.158;2022-10-18T05:23:26;8.90;;;5.50;;
55800;SDS011;41730;51.960;20.158;2022-10-18T05:25:59;7.70;;;5.10;;
55800;SDS011;41730;51.960;20.158;2022-10-18T05:28:29;10.60;;;5.90;;
55800;SDS011;41730;51.960;20.158;2022-10-18T05:31:09;12.20;;;6.00;;
55800;SDS011;41730;51.960;20.158;2022-10-18T05:33:38;9.80;;;5.90;;
55800;SDS011;41730;51.960;20.158;2022-10-18T05:36:07;10.00;;;6.20;;
55800;SDS011;41730;51.960;20.158;2022-10-18T05:38:37;9.70;;;6.20;;
55800;SDS011;41730;51.960;20.158;2022-10-18T05:41:08;7.10;;;5.40;;
55800;SDS011;41730;51.960;20.158;2022-10-18T05:43:38;10.50;;;6.00;;
55800;SDS011;41730;51.960;20.158;2022-10-18T05:46:08;9.70;;;6.20;;
55800;SDS011;41730;51.960;20.158;2022-10-18T05:48:42;9.20;;;5.60;;
55800;SDS011;41730;51.960;20.158;2022-10-18T05:51:16;10.00;;;5.80;;
55800;SDS011;41730;51.960;20.158;2022-10-18T05:53:45;12.00;;;5.70;;
55800;SDS011;41730;51.960;20.158;2022-10-18T05:56:14;11.70;;;6.60;;
55800;SDS011;41730;51.960;20.158;2022-10-18T05:58:43;11.60;;;6.50;;
55800;SDS011;41730;51.960;20.158;2022-10-18T06:01:16;13.20;;;6.20;;
55800;SDS011;41730;51.960;20.158;2022-10-18T06:03:45;10.30;;;6.50;;
55800;SDS011;41730;51.960;20.158;2022-10-18T06:06:15;12.40;;;6.00;;
55800;SDS011;41730;51.960;20.158;2022-10-18T06:08:44;12.50;;;6.80;;
55800;SDS011;41730;51.960;20.158;2022-10-18T06:11:17;7.70;;;5.50;;
55800;SDS011;41730;51.960;20.158;2022-10-18T06:13:48;9.10;;;4.90;;
55800;SDS011;41730;51.960;20.158;2022-10-18T06:16:18;9.50;;;5.20;;
55800;SDS011;41730;51.960;20.158;2022-10-18T06:18:48;8.20;;;4.80;;
55800;SDS011;41730;51.960;20.158;2022-10-18T06:21:19;9.70;;;5.20;;
55800;SDS011;41730;51.960;20.158;2022-10-18T06:23:49;11.50;;;5.90;;
55800;SDS011;41730;51.960;20.158;2022-10-18T06:26:18;8.70;;;6.10;;
55800;SDS011;41730;51.960;20.158;2022-10-18T06:28:48;9.10;;;6.10;;
55800;SDS011;41730;51.960;20.158;2022-10-18T06:31:17;11.80;;;6.40;;
55800;SDS011;41730;51.960;20.158;2022-10-18T06:33:47;10.20;;;6.10;;
55800;SDS011;41730;51.960;20.158;2022-10-18T06:36:16;8.80;;;5.40;;
55800;SDS011;41730;51.960;20.158;2022-10-18T06:38:48;7.90;;;5.50;;
55800;SDS011;41730;51.960;20.158;2022-10-18T06:41:17;10.00;;;6.00;;
55800;SDS011;41730;51.960;20.158;2022-10-18T06:43:47;10.80;;;6.00;;
55800;SDS011;41730;51.960;20.158;2022-10-18T06:46:16;13.00;;;5.70;;
55800;SDS011;41730;51.960;20.158;2022-10-18T06:48:46;10.70;;;5.90;;
55800;SDS011;41730;51.960;20.158;2022-10-18T06:51:15;8.70;;;6.10;;
55800;SDS011;41730;51.960;20.158;2022-10-18T06:53:44;9.60;;;5.30;;
55800;SDS011;41730;51.960;20.158;2022-10-18T06:56:33;8.70;;;5.50;;
55800;SDS011;41730;51.960;20.158;2022-10-18T06:59:02;7.50;;;5.40;;
55800;SDS011;41730;51.960;20.158;2022-10-18T07:01:31;10.70;;;5.80;;
55800;SDS011;41730;51.960;20.158;2022-10-18T07:04:01;8.50;;;5.70;;
55800;SDS011;41730;51.960;20.158;2022-10-18T07:06:31;9.40;;;5.10;;
55800;SDS011;41730;51.960;20.158;2022-10-18T07:09:00;9.00;;;5.50;;
55800;SDS011;41730;51.960;20.158;2022-10-18T07:11:29;8.00;;;4.80;;
55800;SDS011;41730;51.960;20.158;2022-10-18T07:13:58;8.50;;;4.60;;
55800;SDS011;41730;51.960;20.158;2022-10-18T07:16:30;6.60;;;4.70;;
55800;SDS011;41730;51.960;20.158;2022-10-18T07:19:00;7.40;;;5.10;;
55800;SDS011;41730;51.960;20.158;2022-10-18T07:21:29;9.10;;;5.30;;
55800;SDS011;41730;51.960;20.158;2022-10-18T07:23:58;11.00;;;5.40;;
55800;SDS011;41730;51.960;20.158;2022-10-18T07:26:28;8.30;;;5.20;;
55800;SDS011;41730;51.960;20.158;2022-10-18T07:28:58;8.50;;;5.80;;
55800;SDS011;41730;51.960;20.158;2022-10-18T07:31:30;10.60;;;5.90;;
55800;SDS011;41730;51.960;20.158;2022-10-18T07:33:59;8.20;;;5.20;;
55800;SDS011;41730;51.960;20.158;2022-10-18T07:36:29;9.20;;;5.20;;
55800;SDS011;41730;51.960;20.158;2022-10-18T07:38:58;9.50;;;5.60;;
55800;SDS011;41730;51.960;20.158;2022-10-18T07:41:31;8.50;;;5.60;;
55800;SDS011;41730;51.960;20.158;2022-10-18T07:44:02;7.40;;;5.20;;
55800;SDS011;41730;51.960;20.158;2022-10-18T07:46:31;9.90;;;5.50;;
55800;SDS011;41730;51.960;20.158;2022-10-18T07:49:00;10.50;;;5.60;;
55800;SDS011;41730;51.960;20.158;2022-10-18T07:51:30;8.20;;;4.90;;
55800;SDS011;41730;51.960;20.158;2022-10-18T07:54:02;10.20;;;5.80;;
55800;SDS011;41730;51.960;20.158;2022-10-18T07:56:31;8.10;;;5.30;;
55800;SDS011;41730;51.960;20.158;2022-10-18T07:59:00;9.30;;;5.10;;
55800;SDS011;41730;51.960;20.158;2022-10-18T08:01:29;7.90;;;5.70;;
55800;SDS011;41730;51.960;20.158;2022-10-18T08:03:58;9.10;;;5.40;;
55800;SDS011;41730;51.960;20.158;2022-10-18T08:06:33;10.00;;;5.90;;
55800;SDS011;41730;51.960;20.158;2022-10-18T08:09:02;8.00;;;6.40;;
55800;SDS011;41730;51.960;20.158;2022-10-18T08:11:31;7.90;;;5.50;;
55800;SDS011;41730;51.960;20.158;2022-10-18T08:14:01;7.90;;;5.80;;
55800;SDS011;41730;51.960;20.158;2022-10-18T08:16:30;9.20;;;5.70;;
55800;SDS011;41730;51.960;20.158;2022-10-18T08:19:00;10.40;;;6.00;;
55800;SDS011;41730;51.960;20.158;2022-10-18T08:21:30;9.70;;;6.00;;
55800;SDS011;41730;51.960;20.158;2022-10-18T08:23:59;10.50;;;5.90;;
55800;SDS011;41730;51.960;20.158;2022-10-18T08:26:28;10.10;;;6.70;;
55800;SDS011;41730;51.960;20.158;2022-10-18T08:28:57;11.60;;;6.10;;
55800;SDS011;41730;51.960;20.158;2022-10-18T08:31:49;10.00;;;5.90;;
55800;SDS011;41730;51.960;20.158;2022-10-18T08:34:18;8.40;;;5.80;;
55800;SDS011;41730;51.960;20.158;2022-10-18T08:36:47;11.40;;;5.90;;
55800;SDS011;41730;51.960;20.158;2022-10-18T08:39:16;12.60;;;6.70;;
55800;SDS011;41730;51.960;20.158;2022-10-18T08:44:49;11.40;;;7.20;;
55800;SDS011;41730;51.960;20.158;2022-10-18T08:47:19;11.20;;;7.00;;
55800;SDS011;41730;51.960;20.158;2022-10-18T08:49:54;10.20;;;7.10;;
55800;SDS011;41730;51.960;20.158;2022-10-18T08:52:30;12.40;;;6.50;;
55800;SDS011;41730;51.960;20.158;2022-10-18T08:55:01;11.90;;;8.00;;
55800;SDS011;41730;51.960;20.158;2022-10-18T08:57:36;12.90;;;7.50;;
55800;SDS011;41730;51.960;20.158;2022-10-18T09:00:06;14.00;;;8.00;;
55800;SDS011;41730;51.960;20.158;2022-10-18T09:02:47;13.60;;;9.10;;
55800;SDS011;41730;51.960;20.158;2022-10-18T09:05:26;10.20;;;7.80;;
55800;SDS011;41730;51.960;20.158;2022-10-18T09:11:13;13.10;;;8.30;;
55800;SDS011;41730;51.960;20.158;2022-10-18T09:14:01;12.90;;;9.20;;
55800;SDS011;41730;51.960;20.158;2022-10-18T09:16:44;14.20;;;8.80;;
55800;SDS011;41730;51.960;20.158;2022-10-18T09:19:27;12.60;;;9.30;;
55800;SDS011;41730;51.960;20.158;2022-10-18T09:22:10;13.80;;;9.00;;
55800;SDS011;41730;51.960;20.158;2022-10-18T09:24:43;11.70;;;8.90;;
55800;SDS011;41730;51.960;20.158;2022-10-18T09:27:17;12.90;;;8.80;;
55800;SDS011;41730;51.960;20.158;2022-10-18T09:29:50;12.40;;;8.20;;
55800;SDS011;41730;51.960;20.158;2022-10-18T09:32:42;13.80;;;9.10;;
55800;SDS011;41730;51.960;20.158;2022-10-18T09:35:18;13.60;;;8.50;;
55800;SDS011;41730;51.960;20.158;2022-10-18T09:38:00;12.70;;;8.60;;
55800;SDS011;41730;51.960;20.158;2022-10-18T09:40:32;12.80;;;9.80;;
55800;SDS011;41730;51.960;20.158;2022-10-18T09:43:05;15.00;;;9.40;;
55800;SDS011;41730;51.960;20.158;2022-10-18T09:45:39;14.00;;;9.10;;
55800;SDS011;41730;51.960;20.158;2022-10-18T09:48:12;14.40;;;10.40;;
55800;SDS011;41730;51.960;20.158;2022-10-18T09:50:43;14.50;;;10.00;;
55800;SDS011;41730;51.960;20.158;2022-10-18T09:53:18;15.80;;;9.90;;
55800;SDS011;41730;51.960;20.158;2022-10-18T09:55:54;12.60;;;9.60;;
55800;SDS011;41730;51.960;20.158;2022-10-18T09:58:27;14.70;;;9.70;;
55800;SDS011;41730;51.960;20.158;2022-10-18T10:01:06;14.50;;;10.10;;
55800;SDS011;41730;51.960;20.158;2022-10-18T10:03:37;16.50;;;10.30;;
55800;SDS011;41730;51.960;20.158;2022-10-18T10:06:17;14.80;;;10.10;;
55800;SDS011;41730;51.960;20.158;2022-10-18T10:08:56;16.70;;;10.50;;
55800;SDS011;41730;51.960;20.158;2022-10-18T10:11:31;15.60;;;10.60;;
55800;SDS011;41730;51.960;20.158;2022-10-18T10:14:09;16.20;;;11.10;;
55800;SDS011;41730;51.960;20.158;2022-10-18T10:16:43;16.90;;;11.00;;
55800;SDS011;41730;51.960;20.158;2022-10-18T10:19:16;17.10;;;10.40;;
55800;SDS011;41730;51.960;20.158;2022-10-18T10:21:48;16.40;;;10.60;;
55800;SDS011;41730;51.960;20.158;2022-10-18T10:24:22;16.40;;;9.90;;
55800;SDS011;41730;51.960;20.158;2022-10-18T10:27:04;17.60;;;11.00;;
55800;SDS011;41730;51.960;20.158;2022-10-18T10:29:46;15.90;;;10.50;;
55800;SDS011;41730;51.960;20.158;2022-10-18T10:32:29;16.00;;;10.50;;
55800;SDS011;41730;51.960;20.158;2022-10-18T10:35:15;16.30;;;11.10;;
55800;SDS011;41730;51.960;20.158;2022-10-18T10:38:20;20.70;;;11.90;;
55800;SDS011;41730;51.960;20.158;2022-10-18T10:40:50;18.10;;;11.20;;
55800;SDS011;41730;51.960;20.158;2022-10-18T10:43:20;18.30;;;11.00;;
55800;SDS011;41730;51.960;20.158;2022-10-18T10:46:05;16.10;;;9.70;;
55800;SDS011;41730;51.960;20.158;2022-10-18T10:48:39;14.70;;;9.80;;
55800;SDS011;41730;51.960;20.158;2022-10-18T10:51:40;16.10;;;10.30;;
55800;SDS011;41730;51.960;20.158;2022-10-18T10:54:11;16.70;;;10.60;;
55800;SDS011;41730;51.960;20.158;2022-10-18T10:56:50;14.80;;;9.80;;
55800;SDS011;41730;51.960;20.158;2022-10-18T10:59:25;16.00;;;10.50;;
55800;SDS011;41730;51.960;20.158;2022-10-18T11:02:10;13.60;;;10.00;;
55800;SDS011;41730;51.960;20.158;2022-10-18T11:04:47;15.90;;;9.80;;
55800;SDS011;41730;51.960;20.158;2022-10-18T11:07:20;15.70;;;9.90;;
55800;SDS011;41730;51.960;20.158;2022-10-18T11:09:55;16.30;;;10.40;;
55800;SDS011;41730;51.960;20.158;2022-10-18T11:12:28;15.80;;;10.80;;
55800;SDS011;41730;51.960;20.158;2022-10-18T11:15:15;14.40;;;10.50;;
55800;SDS011;41730;51.960;20.158;2022-10-18T11:17:52;19.30;;;11.70;;
55800;SDS011;41730;51.960;20.158;2022-10-18T11:20:36;18.70;;;12.20;;
55800;SDS011;41730;51.960;20.158;2022-10-18T11:23:09;17.70;;;11.10;;
55800;SDS011;41730;51.960;20.158;2022-10-18T11:25:45;16.90;;;12.20;;
55800;SDS011;41730;51.960;20.158;2022-10-18T11:28:25;16.80;;;11.80;;
55800;SDS011;41730;51.960;20.158;2022-10-18T11:31:06;17.20;;;11.10;;
55800;SDS011;41730;51.960;20.158;2022-10-18T11:33:44;16.00;;;11.70;;
55800;SDS011;41730;51.960;20.158;2022-10-18T11:36:37;16.20;;;11.90;;
55800;SDS011;41730;51.960;20.158;2022-10-18T11:39:23;15.40;;;11.20;;
55800;SDS011;41730;51.960;20.158;2022-10-18T11:42:05;16.80;;;11.20;;
55800;SDS011;41730;51.960;20.158;2022-10-18T11:44:41;14.70;;;10.90;;
55800;SDS011;41730;51.960;20.158;2022-10-18T11:47:18;15.40;;;11.40;;
55800;SDS011;41730;51.960;20.158;2022-10-18T11:49:55;15.70;;;10.80;;
55800;SDS011;41730;51.960;20.158;2022-10-18T11:52:36;16.40;;;11.20;;
55800;SDS011;41730;51.960;20.158;2022-10-18T11:55:18;15.80;;;11.50;;
55800;SDS011;41730;51.960;20.158;2022-10-18T11:58:10;16.90;;;11.80;;
55800;SDS011;41730;51.960;20.158;2022-10-18T12:00:51;20.30;;;11.30;;
55800;SDS011;41730;51.960;20.158;2022-10-18T12:03:27;15.10;;;10.60;;
55800;SDS011;41730;51.960;20.158;2022-10-18T12:06:05;18.00;;;11.90;;
55800;SDS011;41730;51.960;20.158;2022-10-18T12:08:39;20.30;;;12.30;;
55800;SDS011;41730;51.960;20.158;2022-10-18T12:11:13;17.60;;;12.10;;
55800;SDS011;41730;51.960;20.158;2022-10-18T12:13:47;19.80;;;12.20;;
55800;SDS011;41730;51.960;20.158;2022-10-18T12:16:18;14.30;;;11.00;;
55800;SDS011;41730;51.960;20.158;2022-10-18T12:19:12;16.40;;;11.50;;
55800;SDS011;41730;51.960;20.158;2022-10-18T12:21:52;15.70;;;11.20;;
55800;SDS011;41730;51.960;20.158;2022-10-18T12:24:23;14.60;;;11.20;;
55800;SDS011;41730;51.960;20.158;2022-10-18T12:26:57;17.90;;;11.60;;
55800;SDS011;41730;51.960;20.158;2022-10-18T12:29:28;16.40;;;11.40;;
55800;SDS011;41730;51.960;20.158;2022-10-18T12:32:04;19.40;;;11.60;;
55800;SDS011;41730;51.960;20.158;2022-10-18T12:34:39;19.00;;;12.20;;
55800;SDS011;41730;51.960;20.158;2022-10-18T12:40:04;18.10;;;12.20;;
55800;SDS011;41730;51.960;20.158;2022-10-18T12:42:45;17.50;;;12.30;;
55800;SDS011;41730;51.960;20.158;2022-10-18T12:48:04;17.50;;;11.80;;
55800;SDS011;41730;51.960;20.158;2022-10-18T12:50:35;17.30;;;11.10;;
55800;SDS011;41730;51.960;20.158;2022-10-18T12:53:16;16.30;;;12.20;;
55800;SDS011;41730;51.960;20.158;2022-10-18T12:55:47;14.70;;;10.70;;
55800;SDS011;41730;51.960;20.158;2022-10-18T12:58:22;15.70;;;11.10;;
55800;SDS011;41730;51.960;20.158;2022-10-18T13:01:00;19.70;;;12.30;;
55800;SDS011;41730;51.960;20.158;2022-10-18T13:09:29;16.00;;;11.90;;
55800;SDS011;41730;51.960;20.158;2022-10-18T13:12:29;14.80;;;11.70;;
55800;SDS011;41730;51.960;20.158;2022-10-18T13:15:13;19.50;;;13.10;;
55800;SDS011;41730;51.960;20.158;2022-10-18T13:18:01;18.80;;;12.10;;
55800;SDS011;41730;51.960;20.158;2022-10-18T13:20:37;18.50;;;12.10;;
55800;SDS011;41730;51.960;20.158;2022-10-18T13:23:12;19.60;;;13.20;;
55800;SDS011;41730;51.960;20.158;2022-10-18T13:26:02;17.70;;;12.00;;
55800;SDS011;41730;51.960;20.158;2022-10-18T13:28:41;18.00;;;12.10;;
55800;SDS011;41730;51.960;20.158;2022-10-18T13:31:17;15.00;;;11.40;;
55800;SDS011;41730;51.960;20.158;2022-10-18T13:33:48;20.90;;;12.40;;
55800;SDS011;41730;51.960;20.158;2022-10-18T13:36:21;16.80;;;12.80;;
55800;SDS011;41730;51.960;20.158;2022-10-18T13:39:02;19.10;;;14.30;;
55800;SDS011;41730;51.960;20.158;2022-10-18T13:42:16;20.60;;;13.10;;
55800;SDS011;41730;51.960;20.158;2022-10-18T13:44:38;18.60;;;14.10;;
55800;SDS011;41730;51.960;20.158;2022-10-18T13:47:12;17.50;;;13.10;;
55800;SDS011;41730;51.960;20.158;2022-10-18T13:53:00;23.80;;;14.60;;
55800;SDS011;41730;51.960;20.158;2022-10-18T13:55:58;18.20;;;12.20;;
55800;SDS011;41730;51.960;20.158;2022-10-18T13:58:42;17.50;;;11.70;;
55800;SDS011;41730;51.960;20.158;2022-10-18T14:01:39;17.00;;;12.10;;
55800;SDS011;41730;51.960;20.158;2022-10-18T14:04:25;18.60;;;11.70;;
55800;SDS011;41730;51.960;20.158;2022-10-18T14:07:14;18.30;;;11.80;;
55800;SDS011;41730;51.960;20.158;2022-10-18T14:09:47;17.90;;;12.60;;
55800;SDS011;41730;51.960;20.158;2022-10-18T14:12:24;20.00;;;13.20;;
55800;SDS011;41730;51.960;20.158;2022-10-18T14:14:58;18.40;;;13.10;;
55800;SDS011;41730;51.960;20.158;2022-10-18T14:20:10;19.10;;;12.60;;
55800;SDS011;41730;51.960;20.158;2022-10-18T14:22:47;16.30;;;12.30;;
55800;SDS011;41730;51.960;20.158;2022-10-18T14:25:21;18.10;;;12.10;;
55800;SDS011;41730;51.960;20.158;2022-10-18T14:30:51;18.20;;;12.20;;
55800;SDS011;41730;51.960;20.158;2022-10-18T14:33:25;16.70;;;11.90;;
55800;SDS011;41730;51.960;20.158;2022-10-18T14:35:59;17.90;;;12.30;;
55800;SDS011;41730;51.960;20.158;2022-10-18T14:38:31;19.60;;;13.70;;
55800;SDS011;41730;51.960;20.158;2022-10-18T14:41:03;21.50;;;13.50;;
55800;SDS011;41730;51.960;20.158;2022-10-18T14:43:41;16.70;;;12.70;;
55800;SDS011;41730;51.960;20.158;2022-10-18T14:46:15;18.50;;;12.70;;
55800;SDS011;41730;51.960;20.158;2022-10-18T14:48:52;19.40;;;13.20;;
55800;SDS011;41730;51.960;20.158;2022-10-18T14:51:22;18.70;;;13.10;;
55800;SDS011;41730;51.960;20.158;2022-10-18T14:53:54;23.40;;;14.80;;
55800;SDS011;41730;51.960;20.158;2022-10-18T14:56:24;21.40;;;13.60;;
55800;SDS011;41730;51.960;20.158;2022-10-18T14:58:56;20.20;;;13.40;;
55800;SDS011;41730;51.960;20.158;2022-10-18T15:01:28;20.30;;;13.80;;
55800;SDS011;41730;51.960;20.158;2022-10-18T15:03:59;20.30;;;14.00;;
55800;SDS011;41730;51.960;20.158;2022-10-18T15:06:32;22.00;;;14.10;;
55800;SDS011;41730;51.960;20.158;2022-10-18T15:09:01;22.00;;;14.90;;
55800;SDS011;41730;51.960;20.158;2022-10-18T15:11:32;23.90;;;15.40;;
55800;SDS011;41730;51.960;20.158;2022-10-18T15:14:02;47.60;;;26.90;;
55800;SDS011;41730;51.960;20.158;2022-10-18T15:16:32;62.00;;;34.60;;
55800;SDS011;41730;51.960;20.158;2022-10-18T15:19:05;65.50;;;38.60;;
55800;SDS011;41730;51.960;20.158;2022-10-18T15:21:53;64.70;;;36.00;;
55800;SDS011;41730;51.960;20.158;2022-10-18T15:24:44;45.20;;;25.60;;
55800;SDS011;41730;51.960;20.158;2022-10-18T15:27:30;36.50;;;20.90;;
55800;SDS011;41730;51.960;20.158;2022-10-18T15:30:05;30.00;;;19.10;;
55800;SDS011;41730;51.960;20.158;2022-10-18T15:32:36;29.50;;;18.90;;
55800;SDS011;41730;51.960;20.158;2022-10-18T15:35:14;27.40;;;19.90;;